sensor_id;sensor_type;location;lat;lon;timestamp;P1;durP1;ratioP1;P2;durP2;ratioP2
24261;SDS011;12385;51.412;5.540;2023-04-24T00:07:30;34.67;;;18.52;;
24261;SDS011;12385;51.412;5.540;2023-04-24T00:09:55;32.90;;;17.13;;
24261;SDS011;12385;51.412;5.540;2023-04-24T00:12:21;27.27;;;17.17;;
24261;SDS011;12385;51.412;5.540;2023-04-24T00:14:47;24.90;;;17.15;;
24261;SDS011;12385;51.412;5.540;2023-04-24T00:17:13;26.35;;;16.83;;
24261;SDS011;12385;51.412;5.540;2023-04-24T00:19:38;25.67;;;16.20;;
24261;SDS011;12385;51.412;5.540;2023-04-24T00:22:04;23.20;;;15.57;;
24261;SDS011;12385;51.412;5.540;2023-04-24T00:24:30;24.83;;;16.25;;
24261;SDS011;12385;51.412;5.540;2023-04-24T00:26:56;24.40;;;14.85;;
24261;SDS011;12385;51.412;5.540;2023-04-24T00:29:21;25.60;;;14.80;;
24261;SDS011;12385;51.412;5.540;2023-04-24T00:31:47;25.05;;;14.63;;
24261;SDS011;12385;51.412;5.540;2023-04-24T00:34:13;26.05;;;15.02;;
24261;SDS011;12385;51.412;5.540;2023-04-24T00:36:38;23.23;;;15.43;;
24261;SDS011;12385;51.412;5.540;2023-04-24T00:39:05;26.83;;;15.57;;
24261;SDS011;12385;51.412;5.540;2023-04-24T00:41:33;23.67;;;15.38;;
24261;SDS011;12385;51.412;5.540;2023-04-24T00:43:59;23.50;;;15.60;;
24261;SDS011;12385;51.412;5.540;2023-04-24T00:46:24;23.23;;;15.45;;
24261;SDS011;12385;51.412;5.540;2023-04-24T00:48:50;26.13;;;17.95;;
24261;SDS011;12385;51.412;5.540;2023-04-24T00:51:16;24.83;;;16.30;;
24261;SDS011;12385;51.412;5.540;2023-04-24T00:53:42;28.58;;;16.90;;
24261;SDS011;12385;51.412;5.540;2023-04-24T00:56:07;26.98;;;17.50;;
24261;SDS011;12385;51.412;5.540;2023-04-24T00:58:33;24.75;;;17.05;;
24261;SDS011;12385;51.412;5.540;2023-04-24T01:00:59;30.98;;;18.20;;
24261;SDS011;12385;51.412;5.540;2023-04-24T01:03:26;30.95;;;18.42;;
24261;SDS011;12385;51.412;5.540;2023-04-24T01:05:56;33.13;;;18.27;;
24261;SDS011;12385;51.412;5.540;2023-04-24T01:08:26;30.55;;;18.02;;
24261;SDS011;12385;51.412;5.540;2023-04-24T01:10:53;29.17;;;19.10;;
24261;SDS011;12385;51.412;5.540;2023-04-24T01:13:19;31.38;;;18.92;;
24261;SDS011;12385;51.412;5.540;2023-04-24T01:15:45;34.75;;;19.75;;
24261;SDS011;12385;51.412;5.540;2023-04-24T01:18:11;31.23;;;20.08;;
24261;SDS011;12385;51.412;5.540;2023-04-24T01:20:38;34.20;;;20.52;;
24261;SDS011;12385;51.412;5.540;2023-04-24T01:23:06;33.47;;;20.48;;
24261;SDS011;12385;51.412;5.540;2023-04-24T01:25:32;35.30;;;20.75;;
24261;SDS011;12385;51.412;5.540;2023-04-24T01:27:58;32.53;;;21.30;;
24261;SDS011;12385;51.412;5.540;2023-04-24T01:30:24;39.58;;;21.67;;
24261;SDS011;12385;51.412;5.540;2023-04-24T01:32:50;41.15;;;21.80;;
24261;SDS011;12385;51.412;5.540;2023-04-24T01:35:17;37.38;;;20.83;;
24261;SDS011;12385;51.412;5.540;2023-04-24T01:37:42;36.25;;;21.58;;
24261;SDS011;12385;51.412;5.540;2023-04-24T01:40:08;36.10;;;21.30;;
24261;SDS011;12385;51.412;5.540;2023-04-24T01:42:34;35.00;;;22.17;;
24261;SDS011;12385;51.412;5.540;2023-04-24T01:45:00;36.58;;;21.33;;
24261;SDS011;12385;51.412;5.540;2023-04-24T01:47:28;35.97;;;21.58;;
24261;SDS011;12385;51.412;5.540;2023-04-24T01:49:55;41.25;;;23.30;;
24261;SDS011;12385;51.412;5.540;2023-04-24T01:52:21;37.40;;;23.08;;
24261;SDS011;12385;51.412;5.540;2023-04-24T01:54:47;36.15;;;22.42;;
24261;SDS011;12385;51.412;5.540;2023-04-24T01:57:13;38.40;;;24.13;;
24261;SDS011;12385;51.412;5.540;2023-04-24T01:59:39;38.42;;;23.35;;
24261;SDS011;12385;51.412;5.540;2023-04-24T02:02:05;37.95;;;22.90;;
24261;SDS011;12385;51.412;5.540;2023-04-24T02:04:31;42.38;;;23.35;;
24261;SDS011;12385;51.412;5.540;2023-04-24T02:06:56;35.55;;;22.42;;
24261;SDS011;12385;51.412;5.540;2023-04-24T02:09:22;39.40;;;23.05;;
24261;SDS011;12385;51.412;5.540;2023-04-24T02:11:48;35.83;;;22.38;;
24261;SDS011;12385;51.412;5.540;2023-04-24T02:14:13;37.42;;;22.98;;
24261;SDS011;12385;51.412;5.540;2023-04-24T02:16:39;37.10;;;23.25;;
24261;SDS011;12385;51.412;5.540;2023-04-24T02:19:05;37.20;;;23.20;;
24261;SDS011;12385;51.412;5.540;2023-04-24T02:21:30;33.75;;;22.20;;
24261;SDS011;12385;51.412;5.540;2023-04-24T02:23:56;36.90;;;22.50;;
24261;SDS011;12385;51.412;5.540;2023-04-24T02:26:22;35.38;;;22.27;;
24261;SDS011;12385;51.412;5.540;2023-04-24T02:28:49;28.35;;;20.98;;
24261;SDS011;12385;51.412;5.540;2023-04-24T02:31:15;32.83;;;21.63;;
24261;SDS011;12385;51.412;5.540;2023-04-24T02:33:40;40.90;;;22.38;;
24261;SDS011;12385;51.412;5.540;2023-04-24T02:36:06;36.60;;;22.20;;
24261;SDS011;12385;51.412;5.540;2023-04-24T02:38:31;36.40;;;22.33;;
24261;SDS011;12385;51.412;5.540;2023-04-24T02:40:57;34.33;;;21.83;;
24261;SDS011;12385;51.412;5.540;2023-04-24T02:43:24;35.47;;;22.15;;
24261;SDS011;12385;51.412;5.540;2023-04-24T02:45:49;35.78;;;21.92;;
24261;SDS011;12385;51.412;5.540;2023-04-24T02:48:15;33.42;;;21.98;;
24261;SDS011;12385;51.412;5.540;2023-04-24T02:50:42;30.13;;;19.73;;
24261;SDS011;12385;51.412;5.540;2023-04-24T02:53:07;33.47;;;18.83;;
24261;SDS011;12385;51.412;5.540;2023-04-24T02:55:33;31.95;;;18.38;;
24261;SDS011;12385;51.412;5.540;2023-04-24T02:57:59;33.55;;;18.05;;
24261;SDS011;12385;51.412;5.540;2023-04-24T03:00:25;29.63;;;19.52;;
24261;SDS011;12385;51.412;5.540;2023-04-24T03:02:50;34.40;;;19.48;;
24261;SDS011;12385;51.412;5.540;2023-04-24T03:05:16;29.30;;;17.15;;
24261;SDS011;12385;51.412;5.540;2023-04-24T03:07:41;27.00;;;17.40;;
24261;SDS011;12385;51.412;5.540;2023-04-24T03:10:07;28.15;;;17.20;;
24261;SDS011;12385;51.412;5.540;2023-04-24T03:12:33;25.83;;;16.52;;
24261;SDS011;12385;51.412;5.540;2023-04-24T03:14:59;25.42;;;16.90;;
24261;SDS011;12385;51.412;5.540;2023-04-24T03:17:24;28.10;;;16.77;;
24261;SDS011;12385;51.412;5.540;2023-04-24T03:19:50;30.52;;;16.90;;
24261;SDS011;12385;51.412;5.540;2023-04-24T03:22:15;31.13;;;17.50;;
24261;SDS011;12385;51.412;5.540;2023-04-24T03:24:41;24.52;;;15.88;;
24261;SDS011;12385;51.412;5.540;2023-04-24T03:27:07;26.33;;;16.27;;
24261;SDS011;12385;51.412;5.540;2023-04-24T03:29:32;23.23;;;15.40;;
24261;SDS011;12385;51.412;5.540;2023-04-24T03:31:58;26.35;;;16.38;;
24261;SDS011;12385;51.412;5.540;2023-04-24T03:34:23;29.40;;;17.10;;
24261;SDS011;12385;51.412;5.540;2023-04-24T03:36:49;25.70;;;16.55;;
24261;SDS011;12385;51.412;5.540;2023-04-24T03:39:14;27.95;;;15.95;;
24261;SDS011;12385;51.412;5.540;2023-04-24T03:41:40;25.73;;;16.10;;
24261;SDS011;12385;51.412;5.540;2023-04-24T03:44:06;26.13;;;16.45;;
24261;SDS011;12385;51.412;5.540;2023-04-24T03:46:31;27.02;;;15.68;;
24261;SDS011;12385;51.412;5.540;2023-04-24T03:48:57;25.13;;;15.38;;
24261;SDS011;12385;51.412;5.540;2023-04-24T03:51:23;25.80;;;15.48;;
24261;SDS011;12385;51.412;5.540;2023-04-24T03:53:49;24.65;;;15.27;;
24261;SDS011;12385;51.412;5.540;2023-04-24T03:56:15;23.67;;;14.50;;
24261;SDS011;12385;51.412;5.540;2023-04-24T03:58:40;24.25;;;14.52;;
24261;SDS011;12385;51.412;5.540;2023-04-24T04:01:06;24.45;;;14.30;;
24261;SDS011;12385;51.412;5.540;2023-04-24T04:03:32;20.38;;;14.52;;
24261;SDS011;12385;51.412;5.540;2023-04-24T04:05:58;21.08;;;13.60;;
24261;SDS011;12385;51.412;5.540;2023-04-24T04:08:24;18.38;;;12.23;;
24261;SDS011;12385;51.412;5.540;2023-04-24T04:10:49;21.17;;;13.63;;
24261;SDS011;12385;51.412;5.540;2023-04-24T04:13:15;19.77;;;13.50;;
24261;SDS011;12385;51.412;5.540;2023-04-24T04:15:41;19.63;;;13.55;;
24261;SDS011;12385;51.412;5.540;2023-04-24T04:18:06;24.00;;;13.32;;
24261;SDS011;12385;51.412;5.540;2023-04-24T04:20:33;18.73;;;12.55;;
24261;SDS011;12385;51.412;5.540;2023-04-24T04:22:59;16.83;;;12.82;;
24261;SDS011;12385;51.412;5.540;2023-04-24T04:25:24;19.50;;;13.30;;
24261;SDS011;12385;51.412;5.540;2023-04-24T04:27:50;19.58;;;12.70;;
24261;SDS011;12385;51.412;5.540;2023-04-24T04:30:16;14.38;;;11.52;;
24261;SDS011;12385;51.412;5.540;2023-04-24T04:32:43;18.83;;;12.63;;
24261;SDS011;12385;51.412;5.540;2023-04-24T04:35:09;18.40;;;12.60;;
24261;SDS011;12385;51.412;5.540;2023-04-24T04:37:35;21.00;;;13.45;;
24261;SDS011;12385;51.412;5.540;2023-04-24T04:40:01;21.98;;;12.73;;
24261;SDS011;12385;51.412;5.540;2023-04-24T04:42:31;18.38;;;12.60;;
24261;SDS011;12385;51.412;5.540;2023-04-24T04:44:59;19.30;;;13.60;;
24261;SDS011;12385;51.412;5.540;2023-04-24T04:47:25;19.10;;;13.23;;
24261;SDS011;12385;51.412;5.540;2023-04-24T04:49:53;17.42;;;13.25;;
24261;SDS011;12385;51.412;5.540;2023-04-24T04:52:19;19.00;;;13.57;;
24261;SDS011;12385;51.412;5.540;2023-04-24T04:54:45;22.08;;;14.07;;
24261;SDS011;12385;51.412;5.540;2023-04-24T04:57:11;20.73;;;13.82;;
24261;SDS011;12385;51.412;5.540;2023-04-24T04:59:37;23.65;;;14.82;;
24261;SDS011;12385;51.412;5.540;2023-04-24T05:02:03;19.85;;;14.20;;
24261;SDS011;12385;51.412;5.540;2023-04-24T05:04:29;20.95;;;13.38;;
24261;SDS011;12385;51.412;5.540;2023-04-24T05:06:55;21.20;;;13.57;;
24261;SDS011;12385;51.412;5.540;2023-04-24T05:09:21;19.33;;;13.00;;
24261;SDS011;12385;51.412;5.540;2023-04-24T05:11:46;19.77;;;13.40;;
24261;SDS011;12385;51.412;5.540;2023-04-24T05:14:12;23.55;;;13.60;;
24261;SDS011;12385;51.412;5.540;2023-04-24T05:16:38;20.90;;;14.10;;
24261;SDS011;12385;51.412;5.540;2023-04-24T05:19:04;14.93;;;11.40;;
24261;SDS011;12385;51.412;5.540;2023-04-24T05:21:30;16.20;;;10.25;;
24261;SDS011;12385;51.412;5.540;2023-04-24T05:23:56;12.48;;;9.32;;
24261;SDS011;12385;51.412;5.540;2023-04-24T05:26:21;12.88;;;9.02;;
24261;SDS011;12385;51.412;5.540;2023-04-24T05:28:48;14.02;;;9.32;;
24261;SDS011;12385;51.412;5.540;2023-04-24T05:31:13;13.63;;;8.77;;
24261;SDS011;12385;51.412;5.540;2023-04-24T05:33:39;10.98;;;7.00;;
24261;SDS011;12385;51.412;5.540;2023-04-24T05:36:05;10.93;;;7.05;;
24261;SDS011;12385;51.412;5.540;2023-04-24T05:38:31;10.60;;;7.07;;
24261;SDS011;12385;51.412;5.540;2023-04-24T05:40:58;13.15;;;6.65;;
24261;SDS011;12385;51.412;5.540;2023-04-24T05:43:24;11.25;;;5.80;;
24261;SDS011;12385;51.412;5.540;2023-04-24T05:45:50;10.60;;;4.82;;
24261;SDS011;12385;51.412;5.540;2023-04-24T05:48:15;8.45;;;4.10;;
24261;SDS011;12385;51.412;5.540;2023-04-24T05:50:41;9.80;;;4.15;;
24261;SDS011;12385;51.412;5.540;2023-04-24T05:53:07;9.13;;;4.25;;
24261;SDS011;12385;51.412;5.540;2023-04-24T05:55:33;10.73;;;3.83;;
24261;SDS011;12385;51.412;5.540;2023-04-24T05:57:59;5.80;;;3.53;;
24261;SDS011;12385;51.412;5.540;2023-04-24T06:00:25;5.00;;;3.28;;
24261;SDS011;12385;51.412;5.540;2023-04-24T06:02:50;8.00;;;3.47;;
24261;SDS011;12385;51.412;5.540;2023-04-24T06:05:17;8.50;;;3.60;;
24261;SDS011;12385;51.412;5.540;2023-04-24T06:07:44;9.88;;;3.80;;
24261;SDS011;12385;51.412;5.540;2023-04-24T06:10:10;8.10;;;3.30;;
24261;SDS011;12385;51.412;5.540;2023-04-24T06:12:36;8.45;;;3.92;;
24261;SDS011;12385;51.412;5.540;2023-04-24T06:15:02;6.15;;;3.80;;
24261;SDS011;12385;51.412;5.540;2023-04-24T06:17:28;11.75;;;4.05;;
24261;SDS011;12385;51.412;5.540;2023-04-24T06:19:54;7.50;;;4.15;;
24261;SDS011;12385;51.412;5.540;2023-04-24T06:22:19;9.23;;;4.35;;
24261;SDS011;12385;51.412;5.540;2023-04-24T06:24:45;11.52;;;4.90;;
24261;SDS011;12385;51.412;5.540;2023-04-24T06:27:12;9.20;;;4.90;;
24261;SDS011;12385;51.412;5.540;2023-04-24T06:29:37;10.02;;;5.85;;
24261;SDS011;12385;51.412;5.540;2023-04-24T06:32:03;11.98;;;6.20;;
24261;SDS011;12385;51.412;5.540;2023-04-24T06:34:28;10.70;;;6.78;;
24261;SDS011;12385;51.412;5.540;2023-04-24T06:36:55;16.20;;;7.93;;
24261;SDS011;12385;51.412;5.540;2023-04-24T06:39:21;12.57;;;8.05;;
24261;SDS011;12385;51.412;5.540;2023-04-24T06:41:47;13.95;;;8.85;;
24261;SDS011;12385;51.412;5.540;2023-04-24T06:44:12;16.05;;;10.07;;
24261;SDS011;12385;51.412;5.540;2023-04-24T06:46:39;15.02;;;10.18;;
24261;SDS011;12385;51.412;5.540;2023-04-24T06:49:05;15.35;;;9.82;;
24261;SDS011;12385;51.412;5.540;2023-04-24T06:51:31;18.63;;;11.18;;
24261;SDS011;12385;51.412;5.540;2023-04-24T06:53:58;18.35;;;11.52;;
24261;SDS011;12385;51.412;5.540;2023-04-24T06:56:24;23.17;;;12.43;;
24261;SDS011;12385;51.412;5.540;2023-04-24T06:58:50;25.70;;;12.90;;
24261;SDS011;12385;51.412;5.540;2023-04-24T07:01:16;22.23;;;14.02;;
24261;SDS011;12385;51.412;5.540;2023-04-24T07:03:42;22.40;;;13.93;;
24261;SDS011;12385;51.412;5.540;2023-04-24T07:06:08;28.45;;;15.82;;
24261;SDS011;12385;51.412;5.540;2023-04-24T07:08:36;27.42;;;16.25;;
24261;SDS011;12385;51.412;5.540;2023-04-24T07:11:01;29.10;;;17.90;;
24261;SDS011;12385;51.412;5.540;2023-04-24T07:13:27;31.30;;;17.95;;
24261;SDS011;12385;51.412;5.540;2023-04-24T07:15:53;32.55;;;18.52;;
24261;SDS011;12385;51.412;5.540;2023-04-24T07:18:20;37.92;;;19.80;;
24261;SDS011;12385;51.412;5.540;2023-04-24T07:20:46;33.45;;;18.95;;
24261;SDS011;12385;51.412;5.540;2023-04-24T07:23:12;37.72;;;20.58;;
24261;SDS011;12385;51.412;5.540;2023-04-24T07:25:37;34.28;;;19.85;;
24261;SDS011;12385;51.412;5.540;2023-04-24T07:28:04;38.08;;;20.20;;
24261;SDS011;12385;51.412;5.540;2023-04-24T07:30:30;43.45;;;22.65;;
24261;SDS011;12385;51.412;5.540;2023-04-24T07:32:57;44.83;;;22.40;;
24261;SDS011;12385;51.412;5.540;2023-04-24T07:35:24;41.30;;;21.20;;
24261;SDS011;12385;51.412;5.540;2023-04-24T07:37:51;41.72;;;22.23;;
24261;SDS011;12385;51.412;5.540;2023-04-24T07:40:20;38.58;;;19.50;;
24261;SDS011;12385;51.412;5.540;2023-04-24T07:42:46;36.92;;;20.05;;
24261;SDS011;12385;51.412;5.540;2023-04-24T07:45:14;35.08;;;17.42;;
24261;SDS011;12385;51.412;5.540;2023-04-24T07:47:43;32.67;;;14.95;;
24261;SDS011;12385;51.412;5.540;2023-04-24T07:50:10;33.42;;;15.27;;
24261;SDS011;12385;51.412;5.540;2023-04-24T07:52:37;31.05;;;13.27;;
24261;SDS011;12385;51.412;5.540;2023-04-24T07:55:03;31.27;;;12.93;;
24261;SDS011;12385;51.412;5.540;2023-04-24T07:57:29;28.17;;;12.70;;
24261;SDS011;12385;51.412;5.540;2023-04-24T07:59:56;31.45;;;11.75;;
24261;SDS011;12385;51.412;5.540;2023-04-24T08:02:21;25.60;;;11.40;;
24261;SDS011;12385;51.412;5.540;2023-04-24T08:04:51;28.77;;;12.73;;
24261;SDS011;12385;51.412;5.540;2023-04-24T08:09:48;39.53;;;12.98;;
24261;SDS011;12385;51.412;5.540;2023-04-24T08:12:14;32.30;;;12.32;;
24261;SDS011;12385;51.412;5.540;2023-04-24T08:14:40;35.20;;;13.73;;
24261;SDS011;12385;51.412;5.540;2023-04-24T08:17:05;33.55;;;14.23;;
24261;SDS011;12385;51.412;5.540;2023-04-24T08:19:31;45.90;;;15.43;;
24261;SDS011;12385;51.412;5.540;2023-04-24T08:21:56;36.67;;;15.55;;
24261;SDS011;12385;51.412;5.540;2023-04-24T08:24:22;47.38;;;18.02;;
24261;SDS011;12385;51.412;5.540;2023-04-24T08:26:48;41.10;;;16.48;;
24261;SDS011;12385;51.412;5.540;2023-04-24T08:29:22;37.85;;;14.43;;
24261;SDS011;12385;51.412;5.540;2023-04-24T08:31:47;39.05;;;13.82;;
24261;SDS011;12385;51.412;5.540;2023-04-24T08:34:13;30.30;;;13.45;;
24261;SDS011;12385;51.412;5.540;2023-04-24T08:36:38;36.30;;;13.25;;
24261;SDS011;12385;51.412;5.540;2023-04-24T08:42:04;38.30;;;12.38;;
24261;SDS011;12385;51.412;5.540;2023-04-24T08:44:33;34.15;;;11.40;;
24261;SDS011;12385;51.412;5.540;2023-04-24T08:47:07;31.50;;;10.73;;
24261;SDS011;12385;51.412;5.540;2023-04-24T08:49:33;37.40;;;11.23;;
24261;SDS011;12385;51.412;5.540;2023-04-24T08:52:01;29.23;;;9.80;;
24261;SDS011;12385;51.412;5.540;2023-04-24T08:54:37;34.15;;;10.50;;
24261;SDS011;12385;51.412;5.540;2023-04-24T08:57:04;35.38;;;10.65;;
24261;SDS011;12385;51.412;5.540;2023-04-24T08:59:33;31.10;;;9.43;;
24261;SDS011;12385;51.412;5.540;2023-04-24T09:02:00;31.35;;;9.35;;
24261;SDS011;12385;51.412;5.540;2023-04-24T09:04:28;34.45;;;8.57;;
24261;SDS011;12385;51.412;5.540;2023-04-24T09:06:55;29.55;;;8.52;;
24261;SDS011;12385;51.412;5.540;2023-04-24T20:28:49;22.70;;;5.13;;
24261;SDS011;12385;51.412;5.540;2023-04-24T20:31:14;21.98;;;6.00;;
24261;SDS011;12385;51.412;5.540;2023-04-24T20:33:41;23.13;;;5.75;;
24261;SDS011;12385;51.412;5.540;2023-04-24T20:36:09;20.08;;;5.35;;
24261;SDS011;12385;51.412;5.540;2023-04-24T20:38:35;22.73;;;6.60;;
24261;SDS011;12385;51.412;5.540;2023-04-24T20:41:01;22.65;;;6.65;;
24261;SDS011;12385;51.412;5.540;2023-04-24T20:43:27;18.05;;;5.85;;
24261;SDS011;12385;51.412;5.540;2023-04-24T20:45:53;23.75;;;5.85;;
24261;SDS011;12385;51.412;5.540;2023-04-24T20:48:20;22.50;;;6.07;;
24261;SDS011;12385;51.412;5.540;2023-04-24T20:50:46;20.70;;;6.45;;
24261;SDS011;12385;51.412;5.540;2023-04-24T20:53:14;22.60;;;6.35;;
24261;SDS011;12385;51.412;5.540;2023-04-24T20:55:42;21.58;;;6.20;;
24261;SDS011;12385;51.412;5.540;2023-04-24T20:58:08;20.20;;;6.67;;
24261;SDS011;12385;51.412;5.540;2023-04-24T21:00:34;25.10;;;6.53;;
24261;SDS011;12385;51.412;5.540;2023-04-24T21:02:59;29.67;;;7.28;;
24261;SDS011;12385;51.412;5.540;2023-04-24T21:05:25;24.33;;;6.63;;
24261;SDS011;12385;51.412;5.540;2023-04-24T21:07:51;22.73;;;6.45;;
24261;SDS011;12385;51.412;5.540;2023-04-24T21:10:20;24.02;;;7.22;;
24261;SDS011;12385;51.412;5.540;2023-04-24T21:12:46;19.45;;;6.85;;
24261;SDS011;12385;51.412;5.540;2023-04-24T21:15:13;24.35;;;6.35;;
24261;SDS011;12385;51.412;5.540;2023-04-24T21:17:39;25.83;;;7.50;;
24261;SDS011;12385;51.412;5.540;2023-04-24T21:20:05;26.17;;;6.85;;
24261;SDS011;12385;51.412;5.540;2023-04-24T21:22:32;24.20;;;7.18;;
24261;SDS011;12385;51.412;5.540;2023-04-24T21:24:57;29.20;;;7.00;;
24261;SDS011;12385;51.412;5.540;2023-04-24T21:27:23;21.90;;;7.55;;
24261;SDS011;12385;51.412;5.540;2023-04-24T21:29:49;25.77;;;6.60;;
24261;SDS011;12385;51.412;5.540;2023-04-24T21:32:15;22.35;;;7.35;;
24261;SDS011;12385;51.412;5.540;2023-04-24T21:34:40;26.77;;;6.85;;
24261;SDS011;12385;51.412;5.540;2023-04-24T21:37:06;22.25;;;6.80;;
24261;SDS011;12385;51.412;5.540;2023-04-24T21:39:31;28.05;;;7.00;;
24261;SDS011;12385;51.412;5.540;2023-04-24T21:41:57;22.40;;;7.28;;
24261;SDS011;12385;51.412;5.540;2023-04-24T21:44:23;21.10;;;7.07;;
24261;SDS011;12385;51.412;5.540;2023-04-24T21:46:55;22.27;;;7.03;;
24261;SDS011;12385;51.412;5.540;2023-04-24T21:49:21;26.73;;;7.93;;
24261;SDS011;12385;51.412;5.540;2023-04-24T21:51:47;23.27;;;7.78;;
24261;SDS011;12385;51.412;5.540;2023-04-24T21:54:12;28.38;;;7.30;;
24261;SDS011;12385;51.412;5.540;2023-04-24T21:56:38;19.33;;;7.53;;
24261;SDS011;12385;51.412;5.540;2023-04-24T21:59:05;21.65;;;6.88;;
24261;SDS011;12385;51.412;5.540;2023-04-24T22:01:31;20.02;;;7.90;;
24261;SDS011;12385;51.412;5.540;2023-04-24T22:03:58;27.98;;;7.55;;
24261;SDS011;12385;51.412;5.540;2023-04-24T22:06:26;26.90;;;8.38;;
24261;SDS011;12385;51.412;5.540;2023-04-24T22:08:52;26.45;;;8.30;;
24261;SDS011;12385;51.412;5.540;2023-04-24T22:11:18;26.48;;;7.53;;
24261;SDS011;12385;51.412;5.540;2023-04-24T22:13:43;31.85;;;8.18;;
24261;SDS011;12385;51.412;5.540;2023-04-24T22:16:09;25.52;;;7.97;;
24261;SDS011;12385;51.412;5.540;2023-04-24T22:18:35;29.20;;;7.55;;
24261;SDS011;12385;51.412;5.540;2023-04-24T22:21:00;24.13;;;7.78;;
24261;SDS011;12385;51.412;5.540;2023-04-24T22:23:26;25.13;;;7.75;;
24261;SDS011;12385;51.412;5.540;2023-04-24T22:25:52;30.77;;;8.25;;
24261;SDS011;12385;51.412;5.540;2023-04-24T22:28:18;26.40;;;7.55;;
24261;SDS011;12385;51.412;5.540;2023-04-24T22:30:44;24.90;;;7.72;;
24261;SDS011;12385;51.412;5.540;2023-04-24T22:33:09;24.63;;;7.18;;
24261;SDS011;12385;51.412;5.540;2023-04-24T22:35:35;27.80;;;7.88;;
24261;SDS011;12385;51.412;5.540;2023-04-24T22:38:01;26.90;;;7.57;;
24261;SDS011;12385;51.412;5.540;2023-04-24T22:40:29;26.92;;;7.53;;
24261;SDS011;12385;51.412;5.540;2023-04-24T22:42:55;18.75;;;7.22;;
24261;SDS011;12385;51.412;5.540;2023-04-24T22:45:21;24.30;;;7.20;;
24261;SDS011;12385;51.412;5.540;2023-04-24T22:47:48;21.35;;;7.25;;
24261;SDS011;12385;51.412;5.540;2023-04-24T22:50:14;24.90;;;8.20;;
24261;SDS011;12385;51.412;5.540;2023-04-24T22:52:40;26.20;;;7.30;;
24261;SDS011;12385;51.412;5.540;2023-04-24T22:55:09;24.10;;;7.45;;
24261;SDS011;12385;51.412;5.540;2023-04-24T22:57:35;29.08;;;7.97;;
24261;SDS011;12385;51.412;5.540;2023-04-24T23:00:04;27.45;;;7.68;;
24261;SDS011;12385;51.412;5.540;2023-04-24T23:02:36;28.50;;;8.50;;
24261;SDS011;12385;51.412;5.540;2023-04-24T23:05:02;29.65;;;7.75;;
24261;SDS011;12385;51.412;5.540;2023-04-24T23:07:29;26.50;;;7.82;;
24261;SDS011;12385;51.412;5.540;2023-04-24T23:09:55;29.15;;;7.82;;
24261;SDS011;12385;51.412;5.540;2023-04-24T23:12:20;28.70;;;7.68;;
24261;SDS011;12385;51.412;5.540;2023-04-24T23:14:46;29.13;;;7.97;;
24261;SDS011;12385;51.412;5.540;2023-04-24T23:17:12;27.80;;;8.07;;
24261;SDS011;12385;51.412;5.540;2023-04-24T23:19:37;25.92;;;8.27;;
24261;SDS011;12385;51.412;5.540;2023-04-24T23:22:04;27.85;;;8.13;;
24261;SDS011;12385;51.412;5.540;2023-04-24T23:24:30;25.60;;;8.15;;
24261;SDS011;12385;51.412;5.540;2023-04-24T23:26:55;25.27;;;7.78;;
24261;SDS011;12385;51.412;5.540;2023-04-24T23:29:21;24.27;;;7.72;;
24261;SDS011;12385;51.412;5.540;2023-04-24T23:31:47;25.60;;;7.22;;
24261;SDS011;12385;51.412;5.540;2023-04-24T23:34:13;19.63;;;7.40;;
24261;SDS011;12385;51.412;5.540;2023-04-24T23:36:42;29.33;;;8.13;;
24261;SDS011;12385;51.412;5.540;2023-04-24T23:39:07;28.40;;;7.18;;
24261;SDS011;12385;51.412;5.540;2023-04-24T23:41:34;30.65;;;7.60;;
24261;SDS011;12385;51.412;5.540;2023-04-24T23:44:01;21.30;;;7.85;;
24261;SDS011;12385;51.412;5.540;2023-04-24T23:46:27;19.45;;;6.68;;
24261;SDS011;12385;51.412;5.540;2023-04-24T23:48:52;25.45;;;7.72;;
24261;SDS011;12385;51.412;5.540;2023-04-24T23:51:18;23.63;;;7.43;;
24261;SDS011;12385;51.412;5.540;2023-04-24T23:53:43;24.23;;;7.82;;
24261;SDS011;12385;51.412;5.540;2023-04-24T23:56:10;29.25;;;7.75;;
24261;SDS011;12385;51.412;5.540;2023-04-24T23:58:35;23.77;;;7.57;;
